Time;durP1;ratioP1;P1;durP2;ratioP2;P2;SDS_P1;SDS_P2;PMS_P1;PMS_P2;Temp;Humidity;BMP_temperature;BMP_pressure;BME280_temperature;BME280_humidity;BME280_pressure;Samples;Min_cycle;Max_cycle;Signal;HPM_P1;HPM_P2
2023/08/17 00:01:52;;;;;;;47.25;44.85;;;;;;;;;;5079140;28;20031;-66
2023/08/17 00:04:18;;;;;;;47.15;44.75;;;;;;;;;;5077972;28;20036;-67
2023/08/17 00:06:43;;;;;;;46.90;44.53;;;;;;;;;;5080863;28;20104;-67
2023/08/17 00:09:09;;;;;;;53.30;50.63;;;;;;;;;;5078693;28;20043;-67
2023/08/17 00:11:35;;;;;;;51.30;48.67;;;;;;;;;;5078555;28;20040;-67
2023/08/17 00:14:01;;;;;;;51.60;48.92;;;;;;;;;;5079652;28;20060;-68
2023/08/17 00:16:26;;;;;;;47.60;45.20;;;;;;;;;;5080407;28;20032;-67
2023/08/17 00:18:52;;;;;;;48.92;46.38;;;;;;;;;;5080300;28;20386;-67
2023/08/17 00:21:17;;;;;;;45.15;42.80;;;;;;;;;;5077656;28;20064;-67
2023/08/17 00:23:43;;;;;;;51.08;48.47;;;;;;;;;;5078339;28;20592;-67
2023/08/17 00:26:09;;;;;;;44.45;42.20;;;;;;;;;;5081404;28;20054;-67
2023/08/17 00:28:35;;;;;;;45.47;43.17;;;;;;;;;;5076030;28;20040;-67
2023/08/17 00:31:00;;;;;;;41.20;39.10;;;;;;;;;;5081116;28;20055;-67
2023/08/17 00:33:26;;;;;;;45.10;42.72;;;;;;;;;;5079647;28;20024;-67
2023/08/17 00:35:51;;;;;;;47.22;44.85;;;;;;;;;;5081474;28;20295;-67
2023/08/17 00:38:17;;;;;;;42.58;40.38;;;;;;;;;;5079827;28;20113;-67
2023/08/17 00:40:42;;;;;;;41.17;38.88;;;;;;;;;;5073360;28;20115;-67
2023/08/17 00:43:07;;;;;;;42.47;40.28;;;;;;;;;;5073535;28;20044;-67
2023/08/17 00:45:33;;;;;;;45.78;43.42;;;;;;;;;;5074950;28;20036;-66
2023/08/17 00:47:59;;;;;;;46.85;44.42;;;;;;;;;;5074943;28;20039;-67
2023/08/17 00:50:25;;;;;;;46.20;43.83;;;;;;;;;;5075878;28;20044;-67
2023/08/17 00:52:52;;;;;;;46.45;44.10;;;;;;;;;;5077731;28;20036;-68
2023/08/17 00:55:18;;;;;;;46.22;43.88;;;;;;;;;;5076097;28;20024;-67
2023/08/17 00:57:44;;;;;;;51.15;48.55;;;;;;;;;;5076597;28;20530;-66
2023/08/17 01:00:12;;;;;;;45.45;43.13;;;;;;;;;;5076473;28;20025;-66
2023/08/17 01:02:39;;;;;;;46.05;43.72;;;;;;;;;;5080847;28;20058;-67
2023/08/17 01:05:06;;;;;;;46.45;44.08;;;;;;;;;;5078188;28;20691;-67
2023/08/17 01:07:32;;;;;;;49.17;46.13;;;;;;;;;;5082598;28;20043;-67
2023/08/17 01:09:57;;;;;;;48.65;46.20;;;;;;;;;;5079243;28;20037;-67
2023/08/17 01:12:29;;;;;;;45.60;43.30;;;;;;;;;;5078243;28;20032;-67
2023/08/17 01:15:09;;;;;;;47.22;44.72;;;;;;;;;;5075914;28;20040;-67
2023/08/17 01:17:44;;;;;;;43.70;39.85;;;;;;;;;;5081428;28;20044;-67
2023/08/17 01:20:13;;;;;;;44.00;41.75;;;;;;;;;;5069784;28;20036;-67
2023/08/17 01:22:41;;;;;;;38.85;36.85;;;;;;;;;;5079589;28;20487;-67
2023/08/17 01:25:07;;;;;;;36.72;34.85;;;;;;;;;;5080449;28;20044;-67
2023/08/17 01:27:51;;;;;;;40.40;38.33;;;;;;;;;;5077673;28;20035;-67
2023/08/17 01:30:18;;;;;;;40.13;37.88;;;;;;;;;;5078991;28;20028;-65
2023/08/17 01:33:07;;;;;;;43.28;40.95;;;;;;;;;;5076031;28;20032;-66
2023/08/17 01:35:44;;;;;;;37.80;35.83;;;;;;;;;;5080368;28;20040;-66
2023/08/17 01:38:16;;;;;;;40.40;38.33;;;;;;;;;;5079636;28;20040;-67
2023/08/17 01:40:43;;;;;;;38.97;36.95;;;;;;;;;;5078204;28;20043;-67
2023/08/17 01:43:10;;;;;;;39.80;37.72;;;;;;;;;;5080076;28;20096;-67
2023/08/17 01:45:35;;;;;;;41.70;39.53;;;;;;;;;;5075936;28;20484;-67
2023/08/17 01:48:01;;;;;;;41.42;39.33;;;;;;;;;;5085531;28;20027;-66
2023/08/17 01:50:26;;;;;;;38.83;36.70;;;;;;;;;;5076145;28;20039;-67
2023/08/17 01:52:51;;;;;;;41.00;38.90;;;;;;;;;;5079872;28;20085;-66
2023/08/17 01:55:17;;;;;;;42.22;40.03;;;;;;;;;;5079809;28;20086;-67
2023/08/17 01:57:42;;;;;;;45.00;42.60;;;;;;;;;;5075443;28;20457;-66
2023/08/17 02:00:10;;;;;;;41.42;39.17;;;;;;;;;;5075704;28;20043;-66
2023/08/17 02:02:36;;;;;;;40.42;38.33;;;;;;;;;;5085593;28;20039;-66
2023/08/17 02:05:01;;;;;;;39.47;37.42;;;;;;;;;;5076099;28;20035;-67
2023/08/17 02:07:27;;;;;;;43.63;41.28;;;;;;;;;;5078850;28;20040;-67
2023/08/17 02:09:52;;;;;;;43.00;40.78;;;;;;;;;;5074952;28;20206;-67
2023/08/17 02:12:17;;;;;;;41.55;39.40;;;;;;;;;;5075582;28;20097;-68
2023/08/17 02:14:42;;;;;;;39.92;37.88;;;;;;;;;;5081286;28;20119;-68
2023/08/17 02:17:08;;;;;;;42.17;40.03;;;;;;;;;;5076689;28;20143;-69
2023/08/17 02:19:33;;;;;;;41.47;39.30;;;;;;;;;;5075233;28;20028;-69
2023/08/17 02:21:59;;;;;;;45.42;43.00;;;;;;;;;;5081238;28;20054;-68
2023/08/17 02:24:25;;;;;;;42.03;39.85;;;;;;;;;;5075750;28;20042;-68
2023/08/17 02:26:50;;;;;;;44.65;42.35;;;;;;;;;;5079013;28;20040;-68
2023/08/17 02:29:15;;;;;;;46.20;43.70;;;;;;;;;;5078514;28;20036;-67
2023/08/17 02:31:41;;;;;;;49.78;47.10;;;;;;;;;;5078365;28;20062;-68
2023/08/17 02:34:06;;;;;;;43.63;41.40;;;;;;;;;;5083699;28;20032;-68
2023/08/17 02:36:31;;;;;;;43.63;41.35;;;;;;;;;;5078257;28;20637;-68
2023/08/17 02:38:57;;;;;;;43.17;40.97;;;;;;;;;;5074920;28;20583;-67
2023/08/17 02:41:22;;;;;;;40.83;38.67;;;;;;;;;;5077146;28;20040;-67
2023/08/17 02:43:48;;;;;;;42.53;40.28;;;;;;;;;;5077602;28;20043;-68
2023/08/17 02:46:13;;;;;;;40.60;38.08;;;;;;;;;;5077634;28;20734;-68
2023/08/17 02:48:39;;;;;;;34.90;33.08;;;;;;;;;;5078026;28;20362;-68
2023/08/17 02:51:04;;;;;;;37.30;35.40;;;;;;;;;;5078298;28;20098;-67
2023/08/17 02:53:29;;;;;;;41.33;39.17;;;;;;;;;;5076552;28;20081;-67
2023/08/17 02:55:55;;;;;;;36.35;34.45;;;;;;;;;;5059428;28;20490;-67
2023/08/17 02:58:20;;;;;;;41.28;39.10;;;;;;;;;;5076420;28;20362;-67
2023/08/17 03:00:46;;;;;;;41.20;39.08;;;;;;;;;;5076953;28;20046;-68
2023/08/17 03:03:11;;;;;;;38.63;36.63;;;;;;;;;;5078705;28;20028;-68
2023/08/17 03:05:37;;;;;;;40.60;38.53;;;;;;;;;;5077692;28;20032;-67
2023/08/17 03:08:02;;;;;;;41.45;38.72;;;;;;;;;;5079478;28;20047;-67
2023/08/17 03:10:28;;;;;;;42.80;40.55;;;;;;;;;;5074676;28;20056;-67
2023/08/17 03:12:54;;;;;;;36.00;34.13;;;;;;;;;;5078815;28;20024;-67
2023/08/17 03:15:19;;;;;;;38.33;36.35;;;;;;;;;;5080463;28;20415;-68
2023/08/17 03:17:44;;;;;;;40.08;37.60;;;;;;;;;;5077676;28;20426;-68
2023/08/17 03:20:10;;;;;;;33.55;31.77;;;;;;;;;;5076550;28;20025;-68
2023/08/17 03:22:35;;;;;;;35.30;33.45;;;;;;;;;;5077595;28;20024;-67
2023/08/17 03:25:01;;;;;;;38.13;36.17;;;;;;;;;;5075999;28;20469;-68
2023/08/17 03:27:28;;;;;;;42.47;40.28;;;;;;;;;;5076427;28;20063;-68
2023/08/17 03:29:54;;;;;;;39.70;37.60;;;;;;;;;;5075049;28;20107;-68
2023/08/17 03:32:19;;;;;;;35.15;33.30;;;;;;;;;;5074257;28;20505;-68
2023/08/17 03:34:44;;;;;;;36.70;34.65;;;;;;;;;;5074994;28;20482;-68
2023/08/17 03:37:10;;;;;;;36.80;34.35;;;;;;;;;;5074695;28;20482;-67
2023/08/17 03:39:35;;;;;;;36.35;34.42;;;;;;;;;;5076913;28;20063;-67
2023/08/17 03:42:00;;;;;;;35.40;33.55;;;;;;;;;;5078691;28;20070;-69
2023/08/17 03:44:26;;;;;;;35.25;33.40;;;;;;;;;;5078072;28;20032;-67
2023/08/17 03:46:51;;;;;;;34.88;33.03;;;;;;;;;;5077447;28;20120;-68
2023/08/17 03:49:16;;;;;;;40.70;38.60;;;;;;;;;;5076614;28;20093;-68
2023/08/17 03:51:42;;;;;;;46.00;43.65;;;;;;;;;;5073856;28;20090;-67
2023/08/17 03:54:07;;;;;;;49.03;46.35;;;;;;;;;;5077700;28;20580;-67
2023/08/17 03:56:32;;;;;;;40.22;38.13;;;;;;;;;;5074994;28;20563;-67
2023/08/17 03:58:58;;;;;;;42.95;40.70;;;;;;;;;;5076031;28;20044;-68
2023/08/17 04:01:23;;;;;;;46.92;44.50;;;;;;;;;;5075690;28;20040;-68
2023/08/17 04:03:48;;;;;;;71.85;68.25;;;;;;;;;;5076745;28;20024;-68
2023/08/17 04:06:14;;;;;;;79.65;75.60;;;;;;;;;;5077555;28;20071;-68
2023/08/17 04:08:39;;;;;;;74.05;70.18;;;;;;;;;;5076348;28;20151;-67
2023/08/17 04:11:05;;;;;;;63.67;60.35;;;;;;;;;;5074180;28;20039;-67
2023/08/17 04:13:31;;;;;;;61.58;58.42;;;;;;;;;;5068421;28;20027;-67
2023/08/17 04:15:56;;;;;;;55.70;52.85;;;;;;;;;;5072350;28;20041;-66
2023/08/17 04:18:22;;;;;;;46.33;43.95;;;;;;;;;;5075684;28;20094;-67
2023/08/17 04:20:47;;;;;;;52.72;49.97;;;;;;;;;;5073380;28;20037;-67
2023/08/17 04:23:13;;;;;;;46.50;43.83;;;;;;;;;;5074290;28;20579;-68
2023/08/17 04:25:38;;;;;;;38.28;36.28;;;;;;;;;;5074716;28;20031;-67
2023/08/17 04:28:04;;;;;;;42.13;39.95;;;;;;;;;;5072183;28;20047;-67
2023/08/17 04:30:29;;;;;;;33.25;31.40;;;;;;;;;;5079094;28;20028;-67
2023/08/17 04:32:55;;;;;;;34.30;32.50;;;;;;;;;;5073635;28;20485;-67
2023/08/17 04:35:20;;;;;;;31.73;29.92;;;;;;;;;;5075712;28;20040;-67
2023/08/17 04:37:47;;;;;;;34.75;32.83;;;;;;;;;;5076517;28;20067;-68
2023/08/17 04:40:12;;;;;;;33.03;31.23;;;;;;;;;;5073180;28;20412;-67
2023/08/17 04:42:37;;;;;;;33.22;31.48;;;;;;;;;;5073543;28;20039;-68
2023/08/17 04:45:03;;;;;;;30.92;29.33;;;;;;;;;;5074079;28;20063;-67
2023/08/17 04:47:28;;;;;;;32.58;30.88;;;;;;;;;;5059993;28;20621;-68
2023/08/17 04:49:54;;;;;;;33.58;31.60;;;;;;;;;;5076630;28;20032;-67
2023/08/17 04:52:19;;;;;;;32.72;31.02;;;;;;;;;;5073047;28;20029;-68
2023/08/17 04:54:45;;;;;;;32.45;30.73;;;;;;;;;;5077746;28;20598;-67
2023/08/17 04:57:10;;;;;;;30.95;29.30;;;;;;;;;;5074356;28;20066;-69
2023/08/17 04:59:36;;;;;;;31.30;29.48;;;;;;;;;;5071913;28;20038;-69
2023/08/17 05:02:01;;;;;;;30.85;29.15;;;;;;;;;;5076347;28;20033;-65
2023/08/17 05:04:27;;;;;;;32.95;31.13;;;;;;;;;;5076662;28;20055;-65
2023/08/17 05:06:52;;;;;;;32.72;30.98;;;;;;;;;;5074581;28;20142;-65
2023/08/17 05:09:17;;;;;;;34.78;32.95;;;;;;;;;;5074379;28;20036;-67
2023/08/17 05:11:43;;;;;;;31.20;29.40;;;;;;;;;;5074773;28;20101;-65
2023/08/17 05:14:09;;;;;;;32.80;30.10;;;;;;;;;;5075727;28;20044;-65
2023/08/17 05:16:34;;;;;;;28.73;27.13;;;;;;;;;;5074062;28;20036;-66
2023/08/17 05:18:59;;;;;;;30.33;28.65;;;;;;;;;;5076180;28;20043;-67
2023/08/17 05:21:26;;;;;;;31.60;29.77;;;;;;;;;;5074887;28;20477;-65
2023/08/17 05:23:51;;;;;;;30.17;28.60;;;;;;;;;;5077478;28;20055;-66
2023/08/17 05:26:17;;;;;;;33.22;31.35;;;;;;;;;;5075373;28;20081;-66
2023/08/17 05:28:43;;;;;;;35.55;33.40;;;;;;;;;;5071290;28;20039;-66
2023/08/17 05:31:09;;;;;;;36.17;34.05;;;;;;;;;;5073452;28;20051;-66
2023/08/17 05:33:34;;;;;;;36.80;34.88;;;;;;;;;;5074597;28;20032;-66
2023/08/17 05:36:00;;;;;;;35.88;34.00;;;;;;;;;;5075065;28;20032;-66
2023/08/17 05:38:25;;;;;;;38.28;36.15;;;;;;;;;;5071703;28;20504;-65
2023/08/17 05:40:57;;;;;;;35.05;33.10;;;;;;;;;;5074802;28;20366;-66
2023/08/17 05:43:23;;;;;;;32.53;30.83;;;;;;;;;;5077795;28;20027;-65
2023/08/17 05:45:49;;;;;;;37.92;35.83;;;;;;;;;;5086258;28;20048;-66
2023/08/17 05:48:14;;;;;;;37.10;35.08;;;;;;;;;;5073485;28;20044;-66
2023/08/17 05:50:43;;;;;;;36.50;34.55;;;;;;;;;;5078136;28;20032;-66
2023/08/17 05:53:08;;;;;;;36.10;34.15;;;;;;;;;;5076504;28;20032;-66
2023/08/17 05:55:34;;;;;;;37.97;35.78;;;;;;;;;;5077954;28;20524;-67
2023/08/17 05:58:00;;;;;;;41.03;38.83;;;;;;;;;;5078432;28;20419;-66
2023/08/17 06:00:25;;;;;;;38.30;36.30;;;;;;;;;;5076815;28;20028;-66
2023/08/17 06:02:51;;;;;;;41.15;38.92;;;;;;;;;;5077910;28;20032;-66
2023/08/17 06:05:19;;;;;;;41.72;39.53;;;;;;;;;;5080720;28;20031;-66
2023/08/17 06:07:44;;;;;;;40.13;38.03;;;;;;;;;;5073713;28;20036;-66
2023/08/17 06:10:11;;;;;;;38.25;36.25;;;;;;;;;;5074375;28;20366;-66
2023/08/17 06:12:36;;;;;;;40.15;38.00;;;;;;;;;;5076116;28;20454;-66
2023/08/17 06:15:03;;;;;;;37.92;35.88;;;;;;;;;;5076380;28;20029;-67
2023/08/17 06:17:28;;;;;;;41.53;39.35;;;;;;;;;;5074301;28;20025;-67
2023/08/17 06:19:53;;;;;;;40.13;38.00;;;;;;;;;;5076766;28;20030;-66
2023/08/17 06:22:19;;;;;;;44.15;41.78;;;;;;;;;;5073688;28;20021;-67
2023/08/17 06:24:44;;;;;;;45.03;42.72;;;;;;;;;;5076471;28;20028;-67
2023/08/17 06:27:14;;;;;;;50.55;47.92;;;;;;;;;;5078501;28;20445;-67
2023/08/17 06:29:39;;;;;;;49.97;47.00;;;;;;;;;;5077911;28;20370;-68
2023/08/17 06:32:05;;;;;;;50.40;47.45;;;;;;;;;;5077670;28;20033;-68
2023/08/17 06:34:31;;;;;;;51.83;49.17;;;;;;;;;;5074503;28;20046;-66
2023/08/17 06:36:58;;;;;;;47.13;44.67;;;;;;;;;;5076778;28;20037;-67
2023/08/17 06:39:23;;;;;;;44.50;42.17;;;;;;;;;;5074391;28;20024;-66
2023/08/17 06:41:49;;;;;;;49.55;46.95;;;;;;;;;;5074162;28;20023;-67
2023/08/17 06:44:14;;;;;;;57.28;54.17;;;;;;;;;;5074780;28;20113;-66
2023/08/17 06:46:39;;;;;;;45.97;43.58;;;;;;;;;;5075530;28;20032;-66
2023/08/17 06:49:05;;;;;;;48.28;45.78;;;;;;;;;;5075363;28;20037;-67
2023/08/17 06:51:30;;;;;;;54.63;51.88;;;;;;;;;;5071740;28;20040;-67
2023/08/17 06:53:55;;;;;;;51.40;48.78;;;;;;;;;;5074586;28;20500;-66
2023/08/17 06:56:22;;;;;;;45.33;42.97;;;;;;;;;;5075811;28;20033;-67
2023/08/17 06:58:48;;;;;;;50.97;48.40;;;;;;;;;;5075201;28;20032;-66
2023/08/17 07:01:14;;;;;;;51.20;48.60;;;;;;;;;;5074663;28;20035;-67
2023/08/17 07:03:40;;;;;;;43.03;40.78;;;;;;;;;;5078346;28;20103;-67
2023/08/17 07:06:05;;;;;;;46.38;43.92;;;;;;;;;;5077179;28;20143;-66
2023/08/17 07:08:31;;;;;;;49.05;46.58;;;;;;;;;;5071576;28;20035;-67
2023/08/17 07:10:57;;;;;;;57.63;54.72;;;;;;;;;;5076961;28;20339;-66
2023/08/17 07:13:22;;;;;;;55.15;52.33;;;;;;;;;;5078999;28;20032;-67
2023/08/17 07:15:47;;;;;;;47.30;44.88;;;;;;;;;;5073957;28;20297;-67
2023/08/17 07:18:13;;;;;;;48.92;46.40;;;;;;;;;;5072368;28;20078;-67
2023/08/17 07:20:38;;;;;;;48.35;45.85;;;;;;;;;;5076198;28;20043;-68
2023/08/17 07:23:03;;;;;;;37.38;35.45;;;;;;;;;;5074641;28;20032;-68
2023/08/17 07:25:29;;;;;;;45.58;43.25;;;;;;;;;;5073323;28;20025;-68
2023/08/17 07:27:54;;;;;;;44.25;41.97;;;;;;;;;;5073109;28;20544;-68
2023/08/17 07:30:20;;;;;;;47.45;44.85;;;;;;;;;;5075010;28;20035;-67
2023/08/17 07:32:45;;;;;;;47.58;44.97;;;;;;;;;;5074361;28;20037;-68
2023/08/17 07:35:10;;;;;;;36.13;34.20;;;;;;;;;;5075119;28;20060;-67
2023/08/17 07:37:36;;;;;;;42.42;40.20;;;;;;;;;;5068573;28;20039;-67
2023/08/17 07:40:04;;;;;;;45.65;43.30;;;;;;;;;;5072485;28;20036;-68
2023/08/17 07:42:30;;;;;;;39.60;37.50;;;;;;;;;;5073184;28;20484;-68
2023/08/17 07:44:55;;;;;;;43.25;40.95;;;;;;;;;;5074256;28;20047;-68
2023/08/17 07:47:21;;;;;;;45.38;43.00;;;;;;;;;;5076726;28;20036;-67
2023/08/17 07:49:46;;;;;;;49.83;47.30;;;;;;;;;;5075826;28;20035;-68
2023/08/17 07:52:12;;;;;;;49.72;47.17;;;;;;;;;;5076911;28;20043;-67
2023/08/17 07:54:37;;;;;;;44.45;42.10;;;;;;;;;;5077501;28;20066;-67
2023/08/17 07:57:03;;;;;;;52.08;49.25;;;;;;;;;;5077554;28;20051;-67
2023/08/17 07:59:29;;;;;;;43.75;41.47;;;;;;;;;;5075113;28;20032;-67
2023/08/17 08:01:54;;;;;;;44.40;42.10;;;;;;;;;;5075929;28;21709;-67
2023/08/17 08:04:20;;;;;;;41.28;39.13;;;;;;;;;;5077087;28;20067;-67
2023/08/17 08:06:46;;;;;;;43.38;41.05;;;;;;;;;;5076682;28;20043;-67
2023/08/17 08:09:12;;;;;;;44.83;42.50;;;;;;;;;;5071347;28;20040;-67
2023/08/17 08:11:37;;;;;;;40.15;38.08;;;;;;;;;;5079020;28;20445;-68
2023/08/17 08:14:03;;;;;;;55.38;52.58;;;;;;;;;;5074225;28;20386;-67
2023/08/17 08:16:31;;;;;;;42.15;39.97;;;;;;;;;;5077581;28;20470;-70
2023/08/17 08:18:57;;;;;;;48.45;45.95;;;;;;;;;;5075182;28;20028;-68
2023/08/17 08:21:22;;;;;;;44.40;42.13;;;;;;;;;;5075583;28;20350;-68
2023/08/17 08:23:47;;;;;;;50.35;47.70;;;;;;;;;;5075938;28;20549;-67
2023/08/17 08:26:13;;;;;;;44.65;42.08;;;;;;;;;;5074325;28;20032;-67
2023/08/17 08:28:39;;;;;;;44.45;41.92;;;;;;;;;;5072704;28;20165;-68
2023/08/17 08:31:04;;;;;;;48.80;46.28;;;;;;;;;;5078332;28;20123;-67
2023/08/17 08:33:30;;;;;;;40.00;37.90;;;;;;;;;;5074583;28;20168;-67
2023/08/17 08:35:56;;;;;;;46.22;43.85;;;;;;;;;;5077905;28;20090;-67
2023/08/17 08:38:22;;;;;;;44.15;41.88;;;;;;;;;;5076454;28;20029;-67
2023/08/17 08:40:48;;;;;;;39.42;37.38;;;;;;;;;;5076276;28;20102;-67
2023/08/17 08:43:14;;;;;;;44.45;42.13;;;;;;;;;;5075594;28;20028;-67
2023/08/17 08:45:44;;;;;;;40.42;38.33;;;;;;;;;;5076744;28;20092;-67
2023/08/17 08:48:10;;;;;;;47.58;45.00;;;;;;;;;;5072622;28;20033;-67
2023/08/17 08:50:37;;;;;;;59.22;56.15;;;;;;;;;;5073343;28;20039;-67
2023/08/17 08:53:06;;;;;;;53.30;50.50;;;;;;;;;;5073339;28;20036;-66
2023/08/17 08:55:36;;;;;;;62.50;59.20;;;;;;;;;;5071918;28;20119;-66
2023/08/17 08:58:03;;;;;;;62.80;59.53;;;;;;;;;;5075898;28;20174;-67
2023/08/17 09:00:29;;;;;;;56.45;53.60;;;;;;;;;;5079906;28;20050;-66
2023/08/17 09:02:56;;;;;;;64.15;60.88;;;;;;;;;;5076791;28;20474;-66
2023/08/17 09:05:22;;;;;;;62.00;58.83;;;;;;;;;;5077023;28;20036;-67
2023/08/17 09:07:52;;;;;;;65.82;62.50;;;;;;;;;;5075507;28;20032;-66
2023/08/17 09:10:17;;;;;;;72.13;68.50;;;;;;;;;;5072043;28;20036;-67
2023/08/17 09:12:47;;;;;;;62.35;59.20;;;;;;;;;;5072572;28;20477;-66
2023/08/17 09:15:13;;;;;;;60.17;57.15;;;;;;;;;;5083834;28;20029;-66
2023/08/17 09:17:38;;;;;;;67.10;63.67;;;;;;;;;;5083078;28;20102;-67
2023/08/17 09:20:07;;;;;;;69.28;65.63;;;;;;;;;;5082460;28;20094;-67
2023/08/17 09:22:42;;;;;;;65.78;62.47;;;;;;;;;;5091190;28;20023;-64
2023/08/17 09:25:11;;;;;;;62.08;58.95;;;;;;;;;;5081301;28;20591;-68
2023/08/17 09:27:37;;;;;;;69.32;65.82;;;;;;;;;;5078898;28;20259;-70
2023/08/17 09:30:08;;;;;;;57.53;54.55;;;;;;;;;;5082310;28;20043;-68
2023/08/17 09:32:34;;;;;;;58.03;55.00;;;;;;;;;;5085951;28;20085;-69
2023/08/17 09:35:05;;;;;;;46.42;44.03;;;;;;;;;;5083243;28;20039;-68
2023/08/17 09:37:31;;;;;;;59.35;56.35;;;;;;;;;;5082504;28;20038;-68
2023/08/17 09:39:56;;;;;;;41.63;39.42;;;;;;;;;;5087485;28;20031;-68
2023/08/17 09:42:22;;;;;;;38.13;36.15;;;;;;;;;;5079953;28;20039;-69
2023/08/17 09:44:49;;;;;;;36.20;34.33;;;;;;;;;;5077999;28;20035;-68
2023/08/17 09:47:21;;;;;;;36.05;34.20;;;;;;;;;;5076943;28;20039;-71
2023/08/17 09:49:51;;;;;;;39.30;37.00;;;;;;;;;;5078822;28;20119;-68
2023/08/17 09:52:16;;;;;;;;;;;;;;;;;;5083638;28;20066;-69
2023/08/17 09:54:43;;;;;;;24.55;23.20;;;;;;;;;;5081817;28;20659;-70
2023/08/17 09:57:09;;;;;;;30.95;29.35;;;;;;;;;;5078371;28;20048;-68
2023/08/17 09:59:34;;;;;;;32.75;31.05;;;;;;;;;;5075236;28;20020;-69
2023/08/17 10:02:00;;;;;;;29.02;27.42;;;;;;;;;;5080923;28;20043;-69
2023/08/17 10:04:29;;;;;;;27.52;25.90;;;;;;;;;;5080180;28;20028;-68
2023/08/17 10:07:06;;;;;;;29.90;28.30;;;;;;;;;;5078465;28;20119;-70
2023/08/17 10:09:38;;;;;;;33.58;31.83;;;;;;;;;;5078597;28;20024;-68
2023/08/17 10:12:11;;;;;;;34.28;32.47;;;;;;;;;;5076453;28;20452;-70
2023/08/17 10:14:41;;;;;;;33.85;32.08;;;;;;;;;;5071782;28;20103;-69
2023/08/17 10:17:13;;;;;;;34.47;32.67;;;;;;;;;;5074283;28;21202;-67
2023/08/17 10:19:53;;;;;;;36.53;34.58;;;;;;;;;;5074966;28;20144;-67
2023/08/17 10:22:26;;;;;;;40.85;38.65;;;;;;;;;;5070240;28;20036;-67
2023/08/17 10:24:54;;;;;;;68.70;65.22;;;;;;;;;;5071332;28;20032;-68
2023/08/17 10:27:20;;;;;;;91.38;86.80;;;;;;;;;;5068363;28;20485;-68
2023/08/17 10:29:47;;;;;;;81.80;77.68;;;;;;;;;;5066407;28;20043;-71
2023/08/17 10:32:13;;;;;;;51.95;49.30;;;;;;;;;;5071441;28;20028;-69
2023/08/17 10:34:39;;;;;;;106.20;100.82;;;;;;;;;;5053681;28;20028;-68
2023/08/17 10:37:05;;;;;;;160.13;152.23;;;;;;;;;;5073541;28;20142;-68
2023/08/17 10:39:31;;;;;;;167.07;158.82;;;;;;;;;;5070802;28;20043;-70
2023/08/17 10:41:58;;;;;;;102.68;97.50;;;;;;;;;;5064432;28;20036;-68
2023/08/17 10:44:45;;;;;;;75.63;71.82;;;;;;;;;;5074028;28;20024;-67
2023/08/17 10:47:31;;;;;;;162.15;154.10;;;;;;;;;;5075562;28;20808;-67
2023/08/17 10:49:58;;;;;;;130.40;123.88;;;;;;;;;;5070989;28;20121;-66
2023/08/17 10:52:40;;;;;;;144.40;137.23;;;;;;;;;;5076476;28;20473;-67
2023/08/17 10:55:07;;;;;;;109.78;104.28;;;;;;;;;;5070818;28;20529;-67
2023/08/17 10:57:38;;;;;;;77.03;73.18;;;;;;;;;;5073783;28;20086;-68
2023/08/17 11:00:16;;;;;;;175.10;166.38;;;;;;;;;;5073684;28;20360;-65
2023/08/17 11:03:08;;;;;;;286.48;272.05;;;;;;;;;;5073946;28;20032;-66
2023/08/17 11:05:40;;;;;;;302.17;287.48;;;;;;;;;;5070662;28;20032;-65
2023/08/17 11:08:07;;;;;;;312.00;296.60;;;;;;;;;;5072452;28;20047;-65
2023/08/17 11:10:33;;;;;;;333.92;317.50;;;;;;;;;;5073647;28;20541;-67
2023/08/17 11:12:59;;;;;;;324.98;308.75;;;;;;;;;;5070491;28;20097;-66
2023/08/17 11:15:42;;;;;;;337.17;320.58;;;;;;;;;;5073538;28;20036;-65
2023/08/17 11:18:11;;;;;;;303.75;288.95;;;;;;;;;;5072308;28;20024;-65
2023/08/17 11:20:38;;;;;;;203.75;193.88;;;;;;;;;;5075096;28;20028;-65
2023/08/17 11:23:05;;;;;;;307.13;292.05;;;;;;;;;;5074486;28;20040;-65
2023/08/17 11:25:32;;;;;;;166.20;158.00;;;;;;;;;;5073398;28;20060;-65
2023/08/17 11:27:59;;;;;;;135.93;129.25;;;;;;;;;;5073448;28;20028;-66
2023/08/17 11:30:25;;;;;;;216.52;206.00;;;;;;;;;;5074205;28;20121;-66
2023/08/17 11:32:52;;;;;;;357.40;339.20;;;;;;;;;;5069318;28;20442;-66
2023/08/17 11:35:18;;;;;;;139.20;132.32;;;;;;;;;;5070858;28;20040;-66
2023/08/17 11:37:44;;;;;;;122.88;116.80;;;;;;;;;;5070980;28;20036;-66
2023/08/17 11:40:12;;;;;;;271.02;257.83;;;;;;;;;;5072944;28;20043;-65
2023/08/17 11:42:38;;;;;;;141.60;134.13;;;;;;;;;;5071681;28;20032;-66
2023/08/17 11:45:05;;;;;;;205.02;195.00;;;;;;;;;;5072194;28;20063;-66
2023/08/17 11:47:32;;;;;;;97.30;92.47;;;;;;;;;;5070623;28;20060;-65
2023/08/17 11:50:01;;;;;;;94.68;90.00;;;;;;;;;;5074670;28;20060;-67
2023/08/17 11:52:27;;;;;;;74.32;70.55;;;;;;;;;;5076291;28;20027;-66
2023/08/17 11:54:56;;;;;;;78.93;75.03;;;;;;;;;;5073125;28;20488;-66
2023/08/17 11:57:22;;;;;;;100.13;95.18;;;;;;;;;;5072039;28;20043;-66
2023/08/17 11:59:47;;;;;;;331.50;315.20;;;;;;;;;;5071727;28;20040;-65
2023/08/17 12:02:13;;;;;;;81.15;77.10;;;;;;;;;;5072238;28;20125;-66
2023/08/17 12:04:38;;;;;;;124.57;118.40;;;;;;;;;;5073338;28;20028;-65
2023/08/17 12:07:04;;;;;;;203.98;193.07;;;;;;;;;;5070218;28;20048;-66
2023/08/17 12:09:33;;;;;;;361.08;342.85;;;;;;;;;;5073100;28;20744;-66
2023/08/17 12:12:00;;;;;;;291.33;276.95;;;;;;;;;;5070425;28;20044;-66
2023/08/17 12:14:27;;;;;;;316.38;300.73;;;;;;;;;;5070745;28;20040;-65
2023/08/17 12:16:56;;;;;;;340.13;323.10;;;;;;;;;;5066026;28;20036;-66
2023/08/17 12:19:22;;;;;;;329.88;313.33;;;;;;;;;;5075946;28;20047;-66
2023/08/17 12:21:50;;;;;;;477.35;451.55;;;;;;;;;;5071572;28;20056;-65
2023/08/17 12:24:16;;;;;;;472.42;446.90;;;;;;;;;;5073813;28;20024;-65
2023/08/17 12:26:43;;;;;;;390.25;370.30;;;;;;;;;;5071230;28;20501;-65
2023/08/17 12:29:09;;;;;;;344.95;327.58;;;;;;;;;;5070212;28;20035;-65
2023/08/17 12:31:35;;;;;;;277.83;264.15;;;;;;;;;;5070446;28;20036;-65
2023/08/17 12:34:01;;;;;;;303.92;288.92;;;;;;;;;;5076488;28;20032;-65
2023/08/17 12:36:27;;;;;;;363.77;345.30;;;;;;;;;;5076567;28;20027;-65
2023/08/17 12:38:52;;;;;;;304.45;289.38;;;;;;;;;;5073544;28;20332;-65
2023/08/17 12:41:18;;;;;;;205.15;195.05;;;;;;;;;;5073311;28;20042;-64
2023/08/17 12:43:43;;;;;;;286.33;272.17;;;;;;;;;;5072708;28;20028;-66
2023/08/17 12:46:10;;;;;;;370.05;351.17;;;;;;;;;;5074091;28;20063;-65
2023/08/17 12:48:36;;;;;;;440.60;417.13;;;;;;;;;;5076927;28;20067;-65
2023/08/17 12:51:01;;;;;;;474.35;448.77;;;;;;;;;;5074097;28;20089;-65
2023/08/17 12:53:26;;;;;;;264.00;250.10;;;;;;;;;;5073851;28;20413;-64
2023/08/17 12:55:52;;;;;;;227.70;216.20;;;;;;;;;;5077675;28;20028;-65
2023/08/17 12:58:17;;;;;;;105.47;100.22;;;;;;;;;;5076252;28;20036;-65
2023/08/17 13:00:43;;;;;;;113.78;108.07;;;;;;;;;;5080018;28;20130;-65
2023/08/17 13:03:08;;;;;;;80.18;76.18;;;;;;;;;;5079591;28;20028;-64
2023/08/17 13:05:33;;;;;;;343.10;325.70;;;;;;;;;;5076112;28;20056;-62
2023/08/17 13:07:59;;;;;;;357.17;338.88;;;;;;;;;;5060487;28;20045;-63
2023/08/17 13:10:25;;;;;;;355.58;337.40;;;;;;;;;;5055785;28;20048;-65
2023/08/17 13:12:54;;;;;;;132.05;125.43;;;;;;;;;;5054225;28;20037;-66
2023/08/17 13:15:21;;;;;;;340.67;323.08;;;;;;;;;;5058297;28;20028;-64
2023/08/17 13:17:46;;;;;;;113.55;107.85;;;;;;;;;;5056091;28;20056;-64
2023/08/17 13:20:12;;;;;;;53.05;50.20;;;;;;;;;;5053947;28;20178;-64
2023/08/17 13:22:37;;;;;;;87.63;83.20;;;;;;;;;;5054778;28;20064;-64
2023/08/17 13:25:03;;;;;;;219.45;208.45;;;;;;;;;;5040368;28;20041;-64
2023/08/17 13:27:29;;;;;;;303.42;287.95;;;;;;;;;;5057642;28;20032;-65
2023/08/17 13:29:54;;;;;;;252.10;239.48;;;;;;;;;;5058277;28;20506;-66
2023/08/17 13:32:19;;;;;;;211.50;200.90;;;;;;;;;;5052497;28;20029;-67
2023/08/17 13:34:45;;;;;;;462.58;437.63;;;;;;;;;;5087673;28;20455;-66
2023/08/17 13:37:10;;;;;;;417.35;395.25;;;;;;;;;;5048874;28;20063;-67
2023/08/17 13:39:36;;;;;;;437.83;414.45;;;;;;;;;;5055753;28;20031;-67
2023/08/17 13:42:01;;;;;;;260.67;247.75;;;;;;;;;;5055692;28;20556;-67
2023/08/17 13:44:26;;;;;;;325.48;308.83;;;;;;;;;;5058448;28;20162;-67
2023/08/17 13:46:52;;;;;;;370.15;351.17;;;;;;;;;;5051970;28;20028;-67
2023/08/17 13:49:17;;;;;;;452.08;427.40;;;;;;;;;;5053425;28;20533;-66
2023/08/17 13:51:42;;;;;;;429.45;406.88;;;;;;;;;;5058648;28;20036;-67
2023/08/17 13:54:08;;;;;;;212.65;202.10;;;;;;;;;;5054373;28;20445;-66
2023/08/17 13:56:33;;;;;;;401.98;381.02;;;;;;;;;;5059806;28;20565;-66
2023/08/17 13:58:58;;;;;;;454.13;429.80;;;;;;;;;;5065014;28;20051;-67
2023/08/17 14:01:24;;;;;;;385.60;365.65;;;;;;;;;;5054630;28;20029;-67
2023/08/17 14:03:49;;;;;;;167.88;159.50;;;;;;;;;;5057995;28;20104;-67
2023/08/17 14:06:15;;;;;;;263.30;250.07;;;;;;;;;;5055881;28;20041;-67
2023/08/17 14:08:41;;;;;;;294.02;279.40;;;;;;;;;;5056483;28;21307;-67